createdAt,value
2023-01-26T00:00:01.700Z,845.6
2023-01-26T00:01:45.375Z,841.9
2023-01-26T00:03:29.073Z,832.6
2023-01-26T00:05:12.780Z,827.6
2023-01-26T00:06:56.482Z,820.1
2023-01-26T00:08:40.176Z,817
2023-01-26T00:10:23.933Z,812.6
2023-01-26T00:12:07.596Z,804.8
2023-01-26T00:13:51.310Z,801
2023-01-26T00:15:34.991Z,798.4
2023-01-26T00:17:18.691Z,797.2
2023-01-26T00:19:02.400Z,798
2023-01-26T00:20:46.111Z,794.5
2023-01-26T00:22:29.800Z,794.2
2023-01-26T00:24:13.490Z,791.8
2023-01-26T00:25:57.204Z,786.9
2023-01-26T00:27:40.915Z,779.3
2023-01-26T00:29:24.582Z,776.1
2023-01-26T00:31:08.312Z,772.5
2023-01-26T00:32:52.006Z,767.7
2023-01-26T00:34:35.716Z,763.8
2023-01-26T00:36:19.421Z,761.7
2023-01-26T00:38:03.125Z,756.9
2023-01-26T00:39:46.819Z,756.3
2023-01-26T00:41:30.529Z,754.6
2023-01-26T00:43:14.244Z,753.2
2023-01-26T00:44:57.922Z,754.4
2023-01-26T00:46:41.620Z,749.3
2023-01-26T00:48:25.442Z,747
2023-01-26T00:50:09.035Z,745.7
2023-01-26T00:51:52.748Z,744
2023-01-26T00:53:36.432Z,740.2
2023-01-26T00:55:20.137Z,737.1
2023-01-26T00:57:03.867Z,731.5
2023-01-26T00:58:47.537Z,726.2
2023-01-26T01:00:31.243Z,724.2
2023-01-26T01:02:14.965Z,724
2023-01-26T01:03:58.669Z,721
2023-01-26T01:05:42.377Z,718.8
2023-01-26T01:07:26.056Z,714.3
2023-01-26T01:09:09.755Z,714.3
2023-01-26T01:10:53.464Z,714.9
2023-01-26T01:12:37.168Z,714.4
2023-01-26T01:14:20.942Z,712.4
2023-01-26T01:16:04.635Z,709.6
2023-01-26T01:17:48.274Z,705.1
2023-01-26T01:19:31.965Z,703.9
2023-01-26T01:21:15.672Z,700.4
2023-01-26T01:22:59.357Z,698.4
2023-01-26T01:24:43.080Z,691.8
2023-01-26T01:26:26.764Z,690.1
2023-01-26T01:28:10.466Z,687.9
2023-01-26T01:29:54.163Z,682.7
2023-01-26T01:31:37.880Z,678.8
2023-01-26T01:33:21.578Z,677.9
2023-01-26T01:35:05.282Z,671.6
2023-01-26T01:36:48.986Z,667.7
2023-01-26T01:38:32.687Z,666.4
2023-01-26T01:40:16.388Z,663.3
2023-01-26T01:42:00.132Z,663.5
2023-01-26T01:43:43.794Z,662.7
2023-01-26T01:45:27.503Z,661.7
2023-01-26T01:47:11.206Z,659.3
2023-01-26T01:48:54.908Z,655.3
2023-01-26T01:50:38.605Z,653.1
2023-01-26T01:52:22.317Z,649.2
2023-01-26T01:54:06.010Z,648.7
2023-01-26T01:55:49.700Z,649.3
2023-01-26T01:57:33.412Z,647.9
2023-01-26T01:59:17.121Z,646.9
2023-01-26T02:01:00.817Z,646.3
2023-01-26T02:02:44.506Z,645.1
2023-01-26T02:04:28.221Z,642
2023-01-26T02:06:11.921Z,640.4
2023-01-26T02:07:55.632Z,640.3
2023-01-26T02:09:39.317Z,638.9
2023-01-26T02:11:23.018Z,634
2023-01-26T02:14:50.424Z,629.4
2023-01-26T02:16:34.126Z,627.1
2023-01-26T02:18:17.825Z,628.3
2023-01-26T02:20:01.522Z,627.2
2023-01-26T02:21:45.250Z,623.7
2023-01-26T02:23:28.922Z,618.6
2023-01-26T02:25:12.662Z,617.4
2023-01-26T02:26:56.336Z,615.3
2023-01-26T02:28:40.065Z,614.3
2023-01-26T02:30:23.737Z,614.7
2023-01-26T02:32:07.445Z,613.8
2023-01-26T02:33:51.153Z,608.7
2023-01-26T02:35:34.875Z,605.2
2023-01-26T02:37:18.567Z,603.8
2023-01-26T02:39:02.311Z,603.3
2023-01-26T02:40:45.971Z,601.1
2023-01-26T02:42:29.664Z,596.2
2023-01-26T02:44:13.370Z,595.1
2023-01-26T02:45:57.164Z,598.1
2023-01-26T02:47:40.763Z,596.8
2023-01-26T02:49:24.467Z,595.6
2023-01-26T02:51:08.172Z,594.6
2023-01-26T02:52:51.854Z,594.3
2023-01-26T02:54:35.550Z,597.8
2023-01-26T02:56:19.274Z,598.9
2023-01-26T02:58:02.973Z,594.8
2023-01-26T02:59:46.668Z,593.3
2023-01-26T03:01:30.374Z,592.1
2023-01-26T03:03:14.067Z,589.7
2023-01-26T03:04:57.780Z,587.5
2023-01-26T03:06:41.462Z,585.4
2023-01-26T03:08:25.160Z,584.7
2023-01-26T03:10:08.857Z,583.2
2023-01-26T03:11:52.569Z,582.6
2023-01-26T03:13:36.283Z,577.9
2023-01-26T03:17:03.670Z,575.3
2023-01-26T03:18:47.382Z,578
2023-01-26T03:20:31.082Z,577.5
2023-01-26T03:22:14.771Z,571.7
2023-01-26T03:23:58.482Z,566
2023-01-26T03:25:42.165Z,563.3
2023-01-26T03:27:25.859Z,562.8
2023-01-26T03:29:09.584Z,563.1
2023-01-26T03:30:53.287Z,562.4
2023-01-26T03:32:36.982Z,560.9
2023-01-26T03:34:20.664Z,560.3
2023-01-26T03:36:04.369Z,565.4
2023-01-26T03:37:48.081Z,564.5
2023-01-26T03:39:31.779Z,567.8
2023-01-26T03:41:15.484Z,569.4
2023-01-26T03:42:59.187Z,567.9
2023-01-26T03:44:42.925Z,566.3
2023-01-26T03:46:26.603Z,565
2023-01-26T03:48:10.276Z,565.9
2023-01-26T03:49:53.987Z,568.3
2023-01-26T03:51:37.705Z,568.7
2023-01-26T03:53:21.402Z,566.4
2023-01-26T03:55:05.099Z,564.8
2023-01-26T03:56:48.811Z,565.4
2023-01-26T03:58:32.501Z,565.3
2023-01-26T04:00:16.206Z,561.7
2023-01-26T04:01:59.924Z,560.9
2023-01-26T04:03:43.606Z,560.8
2023-01-26T04:05:27.323Z,559.8
2023-01-26T04:07:11.042Z,556.7
2023-01-26T04:08:54.730Z,554.8
2023-01-26T04:10:38.425Z,553.5
2023-01-26T04:12:22.141Z,551.3
2023-01-26T04:14:05.833Z,551.8
2023-01-26T04:15:49.553Z,553.5
2023-01-26T04:17:33.237Z,550.4
2023-01-26T04:19:16.950Z,548.1
2023-01-26T04:21:00.656Z,547.2
2023-01-26T04:22:44.348Z,544.1
2023-01-26T04:24:28.034Z,540.9
2023-01-26T04:26:11.750Z,536.2
2023-01-26T04:27:55.435Z,533.6
2023-01-26T04:29:39.154Z,531.2
2023-01-26T04:31:22.853Z,531.9
2023-01-26T04:33:06.539Z,533.9
2023-01-26T04:34:50.246Z,533.6
2023-01-26T04:36:33.957Z,530.2
2023-01-26T04:38:17.645Z,527.2
2023-01-26T04:40:01.359Z,523.7
2023-01-26T04:41:45.058Z,524.6
2023-01-26T04:43:28.772Z,522.8
2023-01-26T04:45:12.449Z,520.8
2023-01-26T04:46:56.156Z,520.9
2023-01-26T04:50:23.559Z,521.3
2023-01-26T04:52:07.273Z,520.4
2023-01-26T04:53:50.958Z,520.4
2023-01-26T04:55:34.663Z,517.8
2023-01-26T04:57:18.362Z,517.7
2023-01-26T04:59:02.061Z,516.4
2023-01-26T05:00:45.761Z,515.3
2023-01-26T05:02:29.471Z,514.3
2023-01-26T05:04:13.182Z,512.6
2023-01-26T05:05:56.865Z,511.4
2023-01-26T05:07:40.575Z,511.9
2023-01-26T05:09:24.264Z,511.9
2023-01-26T05:11:07.989Z,513.4
2023-01-26T05:12:51.661Z,514.7
2023-01-26T05:14:35.377Z,513.9
2023-01-26T05:16:19.068Z,512
2023-01-26T05:18:02.777Z,512.6
2023-01-26T05:19:46.472Z,513.4
2023-01-26T05:21:30.179Z,513.9
2023-01-26T05:23:13.865Z,514.4
2023-01-26T05:24:57.572Z,511.6
2023-01-26T05:26:41.286Z,508.9
2023-01-26T05:28:24.984Z,506.9
2023-01-26T05:30:08.677Z,504.8
2023-01-26T05:31:52.395Z,507.2
2023-01-26T05:33:36.075Z,505
2023-01-26T05:35:19.791Z,503.5
2023-01-26T05:38:47.189Z,503.5
2023-01-26T05:40:30.885Z,505.1
2023-01-26T05:42:14.592Z,504.5
2023-01-26T05:43:58.290Z,505.3
2023-01-26T05:45:42.005Z,505.2
2023-01-26T05:47:25.691Z,504.5
2023-01-26T05:49:09.403Z,503.2
2023-01-26T05:50:53.110Z,502.7
2023-01-26T05:52:36.816Z,505.4
2023-01-26T05:54:20.505Z,504.5
2023-01-26T05:56:04.208Z,503.1
2023-01-26T05:57:47.915Z,501.3
2023-01-26T05:59:31.633Z,500.5
2023-01-26T06:01:15.325Z,499.3
2023-01-26T06:02:59.021Z,498.2
2023-01-26T06:04:42.718Z,498.1
2023-01-26T06:06:26.419Z,498
2023-01-26T06:08:10.132Z,498.2
2023-01-26T06:09:53.837Z,497.2
2023-01-26T06:13:21.229Z,493
2023-01-26T06:15:04.943Z,492.2
2023-01-26T06:16:48.621Z,492.9
2023-01-26T06:18:32.320Z,495
2023-01-26T06:20:16.024Z,493.3
2023-01-26T06:23:43.424Z,495.7
2023-01-26T06:25:27.136Z,494.3
2023-01-26T06:27:10.833Z,493.6
2023-01-26T06:28:54.538Z,493
2023-01-26T06:30:38.245Z,492.1
2023-01-26T06:32:21.931Z,494.9
2023-01-26T06:34:05.644Z,495.5
2023-01-26T06:35:49.350Z,495.6
2023-01-26T06:37:33.045Z,494.8
2023-01-26T06:39:16.757Z,494.4
2023-01-26T06:41:00.467Z,493.6
2023-01-26T06:42:44.253Z,493.9
2023-01-26T06:44:28.079Z,495.7
2023-01-26T06:46:11.561Z,496
2023-01-26T06:47:55.300Z,494.9
2023-01-26T06:49:38.985Z,492.9
2023-01-26T06:51:22.808Z,491.9
2023-01-26T06:53:06.439Z,489.8
2023-01-26T06:54:50.084Z,488.6
2023-01-26T06:56:33.783Z,488.7
2023-01-26T06:58:17.494Z,491.1
2023-01-26T07:00:01.196Z,494.2
2023-01-26T07:01:44.885Z,497.8
2023-01-26T07:03:28.640Z,497.7
2023-01-26T07:05:12.292Z,495.7
2023-01-26T07:06:55.992Z,494.6
2023-01-26T07:08:39.692Z,494.8
2023-01-26T07:10:23.410Z,494
2023-01-26T07:12:07.113Z,494.4
2023-01-26T07:13:50.796Z,494.1
2023-01-26T07:15:34.519Z,492.4
2023-01-26T07:17:18.216Z,489.1
2023-01-26T07:19:01.970Z,489.3
2023-01-26T07:20:45.608Z,488.4
2023-01-26T07:22:29.394Z,489
2023-01-26T07:24:13.045Z,490.7
2023-01-26T07:25:56.738Z,492.8
2023-01-26T07:27:40.428Z,493.9
2023-01-26T07:29:24.119Z,492
2023-01-26T07:31:07.832Z,490.7
2023-01-26T07:32:51.539Z,489.5
2023-01-26T07:34:35.238Z,490.6
2023-01-26T07:36:18.945Z,490.8
2023-01-26T07:38:02.637Z,492.7
2023-01-26T07:39:46.346Z,494.7
2023-01-26T07:41:30.061Z,495.4
2023-01-26T07:43:13.733Z,496.7
2023-01-26T07:44:57.433Z,495.1
2023-01-26T07:46:41.152Z,498
2023-01-26T07:48:24.823Z,499
2023-01-26T07:50:08.539Z,505.2
2023-01-26T07:51:52.255Z,511.2
2023-01-26T07:53:35.969Z,525.4
2023-01-26T07:55:19.635Z,538.6
2023-01-26T07:57:03.344Z,544.6
2023-01-26T07:58:47.039Z,543.8
2023-01-26T08:00:30.761Z,547
2023-01-26T08:02:14.595Z,547.8
2023-01-26T08:03:58.173Z,546.7
2023-01-26T08:05:41.871Z,542.8
2023-01-26T08:07:25.573Z,540.1
2023-01-26T08:09:09.314Z,542.6
2023-01-26T08:10:52.965Z,541.4
2023-01-26T08:12:36.669Z,541
2023-01-26T08:14:20.371Z,537.2
2023-01-26T08:16:04.088Z,537.6
2023-01-26T08:17:47.779Z,537.4
2023-01-26T08:19:31.477Z,539
2023-01-26T08:21:15.220Z,541.6
2023-01-26T08:22:58.945Z,556.3
2023-01-26T08:24:42.586Z,581.2
2023-01-26T08:26:26.285Z,593.7
2023-01-26T08:28:10.048Z,597.2
2023-01-26T08:29:53.695Z,594.7
2023-01-26T08:31:37.399Z,593.9
2023-01-26T08:33:21.113Z,597.7
2023-01-26T08:35:04.802Z,597.6
2023-01-26T08:36:48.521Z,596.9
2023-01-26T08:38:32.194Z,596.7
2023-01-26T08:40:15.992Z,596.7
2023-01-26T08:41:59.621Z,595.5
2023-01-26T08:43:43.311Z,593.5
2023-01-26T08:45:27.637Z,595.6
2023-01-26T08:47:10.702Z,596.7
2023-01-26T08:48:54.425Z,597.5
2023-01-26T08:50:38.132Z,603.1
2023-01-26T08:52:21.840Z,607.3
2023-01-26T08:54:05.517Z,610.6
2023-01-26T08:55:49.235Z,614
2023-01-26T08:57:32.998Z,615.9
2023-01-26T08:59:16.624Z,611.7
2023-01-26T09:01:00.331Z,610.3
2023-01-26T09:02:44.034Z,610.8
2023-01-26T09:04:27.743Z,608.1
2023-01-26T09:06:11.431Z,605.8
2023-01-26T09:07:55.119Z,602.7
2023-01-26T09:09:38.843Z,608.8
2023-01-26T09:11:22.561Z,616.3
2023-01-26T09:13:06.234Z,623.2
2023-01-26T09:14:49.937Z,630.9
2023-01-26T09:16:33.638Z,632
2023-01-26T09:18:17.346Z,628.1
2023-01-26T09:20:01.017Z,623.8
2023-01-26T09:21:44.767Z,619.3
2023-01-26T09:23:28.441Z,618.1
2023-01-26T09:25:12.144Z,616.6
2023-01-26T09:26:55.838Z,615.4
2023-01-26T09:28:39.525Z,613.2
2023-01-26T09:30:23.237Z,610.8
2023-01-26T09:32:06.959Z,606.9
2023-01-26T09:33:50.639Z,607.8
2023-01-26T09:35:34.349Z,606.4
2023-01-26T09:37:18.062Z,606.7
2023-01-26T09:39:01.761Z,606.2
2023-01-26T09:40:45.458Z,606
2023-01-26T09:42:29.171Z,609.2
2023-01-26T09:44:12.848Z,607.6
2023-01-26T09:45:56.558Z,605.7
2023-01-26T09:47:40.248Z,603.6
2023-01-26T09:49:23.947Z,600.8
2023-01-26T09:51:07.654Z,598.7
2023-01-26T09:52:51.366Z,599.1
2023-01-26T09:54:35.068Z,599.6
2023-01-26T09:56:18.774Z,599.8
2023-01-26T09:58:02.471Z,596.3
2023-01-26T10:01:29.849Z,597.8
2023-01-26T10:03:13.589Z,598
2023-01-26T10:04:57.288Z,600.2
2023-01-26T10:06:40.972Z,600.8
2023-01-26T10:08:24.658Z,600.8
2023-01-26T10:10:08.367Z,597.6
2023-01-26T10:11:52.072Z,596.3
2023-01-26T10:13:35.781Z,595.7
2023-01-26T10:15:19.489Z,596.6
2023-01-26T10:17:03.319Z,595.7
2023-01-26T10:18:46.925Z,595.4
2023-01-26T10:20:30.589Z,599.1
2023-01-26T10:22:14.280Z,603.5
2023-01-26T10:23:57.971Z,606.5
2023-01-26T10:25:41.671Z,606.2
2023-01-26T10:27:25.445Z,612.9
2023-01-26T10:29:09.085Z,617.7
2023-01-26T10:30:52.781Z,621.9
2023-01-26T10:32:36.486Z,626.3
2023-01-26T10:34:20.220Z,626.9
2023-01-26T10:36:03.913Z,629.7
2023-01-26T10:37:47.586Z,632.1
2023-01-26T10:39:31.345Z,634.8
2023-01-26T10:41:14.998Z,639.2
2023-01-26T10:42:58.687Z,638.5
2023-01-26T10:44:42.392Z,633.6
2023-01-26T10:46:26.103Z,632.4
2023-01-26T10:48:09.797Z,637
2023-01-26T10:49:53.512Z,640.8
2023-01-26T10:51:37.253Z,643.8
2023-01-26T10:53:20.890Z,648.3
2023-01-26T10:55:04.598Z,654.8
2023-01-26T10:56:48.324Z,660.7
2023-01-26T10:58:32.055Z,667.9
2023-01-26T11:00:15.704Z,671.4
2023-01-26T11:01:59.402Z,675.9
2023-01-26T11:03:43.113Z,681.6
2023-01-26T11:05:26.815Z,695
2023-01-26T11:07:10.511Z,724.8
2023-01-26T11:08:54.221Z,747.3
2023-01-26T11:10:37.934Z,756
2023-01-26T11:12:21.618Z,763.2
2023-01-26T11:14:05.334Z,776.4
2023-01-26T11:15:49.037Z,790.7
2023-01-26T11:17:32.750Z,797.1
2023-01-26T11:19:16.435Z,786.5
2023-01-26T11:21:00.131Z,776.6
2023-01-26T11:22:43.847Z,770.8
2023-01-26T11:24:27.543Z,765.5
2023-01-26T11:26:11.282Z,763.9
2023-01-26T11:27:54.961Z,763.9
2023-01-26T11:29:38.660Z,761.9
2023-01-26T11:31:22.368Z,759.7
2023-01-26T11:33:06.055Z,758
2023-01-26T11:34:49.780Z,759.4
2023-01-26T11:36:33.455Z,763.6
2023-01-26T11:38:17.165Z,768.9
2023-01-26T11:40:00.853Z,768.1
2023-01-26T11:41:44.564Z,766.8
2023-01-26T11:43:28.265Z,768.4
2023-01-26T11:45:11.963Z,766.2
2023-01-26T11:46:55.649Z,766.1
2023-01-26T11:48:39.359Z,766.7
2023-01-26T11:50:23.084Z,764.9
2023-01-26T11:52:06.779Z,767
2023-01-26T11:53:50.471Z,766.6
2023-01-26T11:55:34.165Z,765.1
2023-01-26T11:57:17.870Z,767.2
2023-01-26T11:59:01.577Z,770.8
2023-01-26T12:00:45.274Z,774.8
2023-01-26T12:02:28.993Z,778.2
2023-01-26T12:04:12.687Z,803.2
2023-01-26T12:07:40.155Z,796.4
2023-01-26T12:09:23.784Z,782.2
2023-01-26T12:11:07.485Z,765.7
2023-01-26T12:12:51.287Z,734.5
2023-01-26T12:14:34.899Z,720.3
2023-01-26T12:16:18.590Z,720.2
2023-01-26T12:18:02.300Z,726.2
2023-01-26T12:19:46.009Z,732.8
2023-01-26T12:21:29.702Z,737
2023-01-26T12:23:13.405Z,742.5
2023-01-26T12:24:57.097Z,748.2
2023-01-26T12:26:40.815Z,758.1
2023-01-26T12:28:24.524Z,771.5
2023-01-26T12:30:08.272Z,778.8
2023-01-26T12:31:51.911Z,780.8
2023-01-26T12:33:35.620Z,785
2023-01-26T12:35:19.316Z,795.1
2023-01-26T12:37:03.017Z,815.6
2023-01-26T12:38:46.716Z,816.6
2023-01-26T12:40:30.437Z,813.3
2023-01-26T12:42:14.127Z,811.4
2023-01-26T12:43:57.852Z,811.1
2023-01-26T12:45:41.617Z,812.9
2023-01-26T12:47:25.242Z,815.6
2023-01-26T12:49:08.946Z,815.3
2023-01-26T12:50:52.648Z,813.8
2023-01-26T12:52:36.542Z,813.5
2023-01-26T12:54:20.095Z,818.4
2023-01-26T12:56:03.731Z,821.5
2023-01-26T12:57:47.600Z,826.3
2023-01-26T12:59:31.138Z,830.9
2023-01-26T13:01:14.845Z,834.3
2023-01-26T13:02:58.575Z,837
2023-01-26T13:04:42.284Z,840.4
2023-01-26T13:06:25.958Z,845.4
2023-01-26T13:08:09.773Z,842.8
2023-01-26T13:09:53.365Z,839.2
2023-01-26T13:11:37.064Z,847.4
2023-01-26T13:13:20.782Z,852.3
2023-01-26T13:15:04.464Z,855.6
2023-01-26T13:16:48.156Z,847.2
2023-01-26T13:18:31.877Z,838.7
2023-01-26T13:20:15.626Z,833.3
2023-01-26T13:21:59.270Z,829.1
2023-01-26T13:23:42.979Z,828.5
2023-01-26T13:25:26.674Z,838.2
2023-01-26T13:27:10.367Z,844.3
2023-01-26T13:28:54.067Z,839.8
2023-01-26T13:30:37.761Z,833.6
2023-01-26T13:32:21.471Z,828.6
2023-01-26T13:34:05.175Z,825.3
2023-01-26T13:35:49.080Z,832
2023-01-26T13:37:32.571Z,835.6
2023-01-26T13:39:16.314Z,835.6
2023-01-26T13:40:59.997Z,835.5
2023-01-26T13:42:43.684Z,836.3
2023-01-26T13:44:27.445Z,839.1
2023-01-26T13:46:11.119Z,849.6
2023-01-26T13:47:54.791Z,848.7
2023-01-26T13:49:38.506Z,843.6
2023-01-26T13:51:22.192Z,841.4
2023-01-26T13:53:05.905Z,844.1
2023-01-26T13:54:49.616Z,843.2
2023-01-26T13:56:33.299Z,844.4
2023-01-26T13:58:17.013Z,868.1
2023-01-26T14:00:00.694Z,868.1
2023-01-26T14:01:44.398Z,857.4
2023-01-26T14:03:28.116Z,857.8
2023-01-26T14:05:11.807Z,876.7
2023-01-26T14:06:55.510Z,899.6
2023-01-26T14:08:39.207Z,906.8
2023-01-26T14:10:22.922Z,892.6
2023-01-26T14:12:06.616Z,889.1
2023-01-26T14:13:50.366Z,898.2
2023-01-26T14:15:34.033Z,906.1
2023-01-26T14:17:17.717Z,911.1
2023-01-26T14:19:01.405Z,915.9
2023-01-26T14:20:45.122Z,917.2
2023-01-26T14:22:28.874Z,917.7
2023-01-26T14:24:12.548Z,903.4
2023-01-26T14:25:56.230Z,887.8
2023-01-26T14:27:39.921Z,903.2
2023-01-26T14:29:23.633Z,919.8
2023-01-26T14:31:07.356Z,939.4
2023-01-26T14:32:51.049Z,951.7
2023-01-26T14:34:34.748Z,961.4
2023-01-26T14:36:18.437Z,964.6
2023-01-26T14:38:02.144Z,962.2
2023-01-26T14:39:45.851Z,966
2023-01-26T14:41:29.526Z,977.3
2023-01-26T14:43:13.268Z,977
2023-01-26T14:44:56.978Z,973
2023-01-26T14:46:40.646Z,970.6
2023-01-26T14:48:24.338Z,978.7
2023-01-26T14:50:08.060Z,986
2023-01-26T14:51:51.756Z,992.9
2023-01-26T14:53:35.457Z,999.7
2023-01-26T14:55:19.148Z,1005.9
2023-01-26T14:57:02.855Z,1011
2023-01-26T14:58:46.663Z,1010.5
2023-01-26T15:00:30.270Z,1012.6
2023-01-26T15:02:13.942Z,1015.9
2023-01-26T15:03:57.793Z,1017
2023-01-26T15:05:41.364Z,1018.4
2023-01-26T15:07:25.081Z,1019.6
2023-01-26T15:09:08.761Z,1020.1
2023-01-26T15:10:52.470Z,1017.7
2023-01-26T15:12:36.200Z,1020.1
2023-01-26T15:14:19.876Z,1022.7
2023-01-26T15:16:03.601Z,1029.5
2023-01-26T15:17:47.294Z,1049.6
2023-01-26T15:19:30.987Z,1061.1
2023-01-26T15:21:14.752Z,1070.3
2023-01-26T15:22:58.406Z,1076.5
2023-01-26T15:24:42.109Z,1081
2023-01-26T15:26:25.795Z,1082.8
2023-01-26T15:28:09.512Z,1092.9
2023-01-26T15:29:53.207Z,1099.7
2023-01-26T15:31:36.904Z,1105.8
2023-01-26T15:33:20.617Z,1117.7
2023-01-26T15:35:04.309Z,1122.1
2023-01-26T15:36:48.023Z,1133.9
2023-01-26T15:38:31.726Z,1144.1
2023-01-26T15:40:15.424Z,1149.5
2023-01-26T15:41:59.119Z,1148.9
2023-01-26T15:43:42.820Z,1145
2023-01-26T15:45:26.531Z,1144.7
2023-01-26T15:47:10.320Z,1154.9
2023-01-26T15:48:53.970Z,1162.7
2023-01-26T15:50:37.630Z,1174.6
2023-01-26T15:52:21.333Z,1189.1
2023-01-26T15:54:05.022Z,1194.7
2023-01-26T15:55:48.743Z,1197.5
2023-01-26T15:57:32.450Z,1197.9
2023-01-26T15:59:16.178Z,1201.3
2023-01-26T16:00:59.826Z,1210
2023-01-26T16:02:43.523Z,1216.6
2023-01-26T16:04:27.262Z,1220.2
2023-01-26T16:06:10.930Z,1229.8
2023-01-26T16:07:54.644Z,1240.6
2023-01-26T16:09:38.347Z,1256.5
2023-01-26T16:11:22.055Z,1268.1
2023-01-26T16:13:05.759Z,1269.6
2023-01-26T16:14:49.459Z,1264.7
2023-01-26T16:16:33.158Z,1206.2
2023-01-26T16:18:16.865Z,1157.5
2023-01-26T16:20:00.575Z,1158.1
2023-01-26T16:21:44.272Z,1160.8
2023-01-26T16:23:27.967Z,1168.2
2023-01-26T16:25:11.676Z,1173.5
2023-01-26T16:26:55.469Z,1180.1
2023-01-26T16:28:39.086Z,1186.9
2023-01-26T16:30:22.777Z,1191.9
2023-01-26T16:32:06.472Z,1192.8
2023-01-26T16:33:50.163Z,1195.2
2023-01-26T16:35:33.881Z,1202.1
2023-01-26T16:37:17.572Z,1211.4
2023-01-26T16:39:01.268Z,1214.4
2023-01-26T16:40:44.977Z,1216.6
2023-01-26T16:42:28.683Z,1217.5
2023-01-26T16:44:12.379Z,1220
2023-01-26T16:45:56.084Z,1221.9
2023-01-26T16:47:39.788Z,1221.8
2023-01-26T16:49:23.491Z,1218.7
2023-01-26T16:51:07.185Z,1216.4
2023-01-26T16:52:50.891Z,1216.9
2023-01-26T16:54:34.593Z,1220.9
2023-01-26T16:56:18.309Z,1221.3
2023-01-26T16:58:02.004Z,1224.1
2023-01-26T16:59:45.724Z,1231.6
2023-01-26T17:01:29.416Z,1235.5
2023-01-26T17:03:13.116Z,1239.9
2023-01-26T17:04:56.828Z,1243.6
2023-01-26T17:06:40.520Z,1239.2
2023-01-26T17:08:24.218Z,1232.7
2023-01-26T17:10:07.934Z,1228.2
2023-01-26T17:11:51.655Z,1219.6
2023-01-26T17:13:35.338Z,1188.2
2023-01-26T17:15:19.044Z,1155.3
2023-01-26T17:17:02.741Z,1134.7
2023-01-26T17:18:46.435Z,1130.1
2023-01-26T17:20:30.132Z,1124.2
2023-01-26T17:22:13.831Z,1117.2
2023-01-26T17:23:57.532Z,1114.9
2023-01-26T17:25:41.247Z,1112.5
2023-01-26T17:27:24.950Z,1105.8
2023-01-26T17:29:08.640Z,1105.9
2023-01-26T17:30:52.353Z,1107.1
2023-01-26T17:32:36.051Z,1108.3
2023-01-26T17:34:19.751Z,1107.7
2023-01-26T17:36:03.437Z,1106.6
2023-01-26T17:37:47.158Z,1106.4
2023-01-26T17:39:30.870Z,1102.9
2023-01-26T17:41:14.545Z,1100.8
2023-01-26T17:42:58.244Z,1097.9
2023-01-26T17:44:41.970Z,1098.4
2023-01-26T17:46:25.707Z,1100
2023-01-26T17:48:09.374Z,1099.8
2023-01-26T17:49:53.077Z,1097.6
2023-01-26T17:51:36.775Z,1094.8
2023-01-26T17:53:20.491Z,1088.4
2023-01-26T17:55:04.182Z,1082.9
2023-01-26T17:58:31.581Z,1079.2
2023-01-26T18:00:15.288Z,1075.6
2023-01-26T18:01:58.987Z,1073.3
2023-01-26T18:03:42.680Z,1070.9
2023-01-26T18:05:26.381Z,1068.4
2023-01-26T18:07:10.087Z,1066
2023-01-26T18:08:53.792Z,1062.8
2023-01-26T18:10:37.503Z,1058.3
2023-01-26T18:12:21.191Z,1056
2023-01-26T18:14:04.901Z,1055.5
2023-01-26T18:15:48.607Z,1055.1
2023-01-26T18:17:32.292Z,1055.2
2023-01-26T18:19:15.995Z,1056.5
2023-01-26T18:20:59.699Z,1058.2
2023-01-26T18:22:43.427Z,1062.3
2023-01-26T18:24:27.171Z,1065.8
2023-01-26T18:26:10.796Z,1064.3
2023-01-26T18:27:54.508Z,1064.8
2023-01-26T18:29:38.218Z,1064.4
2023-01-26T18:31:21.932Z,1067.7
2023-01-26T18:33:05.616Z,1068.6
2023-01-26T18:34:49.465Z,1069.8
2023-01-26T18:36:33.033Z,1073.8
2023-01-26T18:38:16.752Z,1082.5
2023-01-26T18:40:00.447Z,1085.5
2023-01-26T18:41:44.150Z,1089.3
2023-01-26T18:43:27.851Z,1086.8
2023-01-26T18:45:11.551Z,1089.9
2023-01-26T18:46:55.261Z,1102.9
2023-01-26T18:48:38.950Z,1112.5
2023-01-26T18:50:22.653Z,1114
2023-01-26T18:52:06.358Z,1115.2
2023-01-26T18:53:50.062Z,1120.6
2023-01-26T18:55:33.741Z,1126.6
2023-01-26T18:57:17.459Z,1130.9
2023-01-26T18:59:01.169Z,1135
2023-01-26T19:00:44.900Z,1135.9
2023-01-26T19:02:28.556Z,1138.2
2023-01-26T19:04:12.255Z,1140
2023-01-26T19:05:55.981Z,1142.2
2023-01-26T19:07:39.669Z,1145
2023-01-26T19:09:23.401Z,1144.8
2023-01-26T19:11:07.063Z,1142.8
2023-01-26T19:12:50.782Z,1140.9
2023-01-26T19:14:34.468Z,1140.4
2023-01-26T19:16:18.171Z,1139.6
2023-01-26T19:18:01.889Z,1141.3
2023-01-26T19:19:45.577Z,1138.8
2023-01-26T19:21:29.298Z,1138.3
2023-01-26T19:23:12.973Z,1136.4
2023-01-26T19:24:56.682Z,1137.5
2023-01-26T19:26:40.381Z,1138.2
2023-01-26T19:28:24.099Z,1139.7
2023-01-26T19:30:07.790Z,1140.6
2023-01-26T19:31:51.508Z,1139.6
2023-01-26T19:33:35.201Z,1135.8
2023-01-26T19:35:18.905Z,1133.8
2023-01-26T19:37:02.609Z,1134.6
2023-01-26T19:38:46.358Z,1133.5
2023-01-26T19:40:30.140Z,1133
2023-01-26T19:42:13.714Z,1132.5
2023-01-26T19:43:57.466Z,1128.4
2023-01-26T19:45:41.144Z,1124
2023-01-26T19:47:24.826Z,1121.2
2023-01-26T19:49:08.545Z,1117.7
2023-01-26T19:50:52.238Z,1117.6
2023-01-26T19:52:35.963Z,1117.1
2023-01-26T19:54:19.634Z,1116.6
2023-01-26T19:56:03.343Z,1112.4
2023-01-26T19:57:47.063Z,1112
2023-01-26T19:59:30.752Z,1110.7
2023-01-26T20:01:14.465Z,1110
2023-01-26T20:02:58.160Z,1107
2023-01-26T20:04:41.875Z,1107.9
2023-01-26T20:06:25.571Z,1107.1
2023-01-26T20:08:09.278Z,1104.2
2023-01-26T20:09:52.975Z,1104.9
2023-01-26T20:11:36.672Z,1105.4
2023-01-26T20:13:20.379Z,1100.3
2023-01-26T20:15:04.092Z,1102.1
2023-01-26T20:16:47.813Z,1100.9
2023-01-26T20:18:31.469Z,1097.5
2023-01-26T20:20:15.175Z,1094.9
2023-01-26T20:21:58.888Z,1094.2
2023-01-26T20:23:42.586Z,1092.4
2023-01-26T20:25:26.286Z,1090.3
2023-01-26T20:27:09.968Z,1091.3
2023-01-26T20:28:53.686Z,1091.9
2023-01-26T20:30:37.385Z,1089.2
2023-01-26T20:32:21.091Z,1089.1
2023-01-26T20:34:04.778Z,1088.1
2023-01-26T20:35:48.488Z,1086.6
2023-01-26T20:37:32.193Z,1085.2
2023-01-26T20:39:15.905Z,1085.6
2023-01-26T20:40:59.591Z,1085.3
2023-01-26T20:42:43.337Z,1082.8
2023-01-26T20:44:27.022Z,1082.1
2023-01-26T20:46:10.683Z,1080.8
2023-01-26T20:47:54.404Z,1075.9
2023-01-26T20:49:38.105Z,1070.1
2023-01-26T20:51:21.793Z,1066.7
2023-01-26T20:54:49.250Z,1060.4
2023-01-26T20:56:32.898Z,1054.3
2023-01-26T20:58:16.676Z,1051.1
2023-01-26T21:00:00.321Z,1046.6
2023-01-26T21:01:44.067Z,1038.2
2023-01-26T21:03:27.729Z,1033.7
2023-01-26T21:05:11.424Z,1035.2
2023-01-26T21:06:55.121Z,1033.7
2023-01-26T21:08:38.825Z,1032.1
2023-01-26T21:10:22.530Z,1026.6
2023-01-26T21:12:06.234Z,1023.7
2023-01-26T21:13:49.924Z,1024.4
2023-01-26T21:15:33.652Z,1025.4
2023-01-26T21:17:17.350Z,1026.6
2023-01-26T21:19:01.047Z,1025.5
2023-01-26T21:20:44.780Z,1024.4
2023-01-26T21:22:28.590Z,1027.2
2023-01-26T21:24:12.159Z,1027.7
2023-01-26T21:25:55.853Z,1027.2
2023-01-26T21:27:39.571Z,1029.3
2023-01-26T21:29:23.270Z,1033
2023-01-26T21:31:06.967Z,1032.3
2023-01-26T21:32:50.677Z,1031
2023-01-26T21:34:34.387Z,1028.9
2023-01-26T21:36:18.095Z,1024.5
2023-01-26T21:38:01.772Z,1021.1
2023-01-26T21:39:45.473Z,1018.6
2023-01-26T21:41:29.199Z,1017.5
2023-01-26T21:43:12.887Z,1012.4
2023-01-26T21:44:56.575Z,1006.4
2023-01-26T21:46:40.295Z,1000.4
2023-01-26T21:48:23.992Z,996.9
2023-01-26T21:50:07.685Z,991.1
2023-01-26T21:51:51.439Z,989.3
2023-01-26T21:53:35.100Z,986.4
2023-01-26T21:55:18.810Z,982.6
2023-01-26T21:57:02.504Z,979.1
2023-01-26T21:58:46.212Z,975
2023-01-26T22:00:29.926Z,971.5
2023-01-26T22:02:13.619Z,969.8
2023-01-26T22:03:57.313Z,964.6
2023-01-26T22:05:41.003Z,956.4
2023-01-26T22:07:24.719Z,950.5
2023-01-26T22:09:08.440Z,945.1
2023-01-26T22:10:52.085Z,936.5
2023-01-26T22:12:35.794Z,932.6
2023-01-26T22:14:19.504Z,930
2023-01-26T22:16:03.271Z,928.2
2023-01-26T22:17:46.892Z,924.3
2023-01-26T22:19:30.610Z,918.7
2023-01-26T22:21:14.317Z,914.6
2023-01-26T22:22:58.020Z,907.8
2023-01-26T22:24:41.702Z,902
2023-01-26T22:26:25.428Z,895.1